Time;durP1;ratioP1;P1;durP2;ratioP2;P2;SDS_P1;SDS_P2;PMS_P1;PMS_P2;Temp;Humidity;BMP_temperature;BMP_pressure;BME280_temperature;BME280_humidity;BME280_pressure;Samples;Min_cycle;Max_cycle;Signal;HPM_P1;HPM_P2
2023/03/29 00:01:06;;;;;;;2.60;1.60;;;;;;;2.65;nan;-23890.00;5031028;28;20170;-69
2023/03/29 00:03:32;;;;;;;1.33;1.23;;;;;;;2.73;nan;-23892.16;5030982;28;20216;-70
2023/03/29 00:06:02;;;;;;;1.30;1.20;;;;;;;3.01;nan;-23900.28;5030658;28;20172;-69
2023/03/29 00:08:33;;;;;;;1.50;1.40;;;;;;;2.68;nan;-23890.88;5031145;28;20165;-69
2023/03/29 00:10:59;;;;;;;1.47;1.37;;;;;;;3.01;nan;-23900.28;5029835;28;20558;-69
2023/03/29 00:13:26;;;;;;;1.60;1.50;;;;;;;2.99;nan;-23899.56;5029521;28;20199;-69
2023/03/29 00:15:52;;;;;;;1.80;1.70;;;;;;;2.48;nan;-23885.16;5031353;28;20272;-69
2023/03/29 00:18:17;;;;;;;1.50;1.40;;;;;;;2.61;nan;-23888.88;5031277;28;20184;-68
2023/03/29 00:20:43;;;;;;;2.00;1.60;;;;;;;2.57;nan;-23887.88;5030642;28;20203;-69
2023/03/29 00:23:08;;;;;;;1.80;1.70;;;;;;;2.60;nan;-23888.59;5011514;28;20183;-68
2023/03/29 00:25:34;;;;;;;1.83;1.60;;;;;;;2.84;nan;-23895.28;5011197;28;20559;-69
2023/03/29 00:27:59;;;;;;;1.10;1.10;;;;;;;2.74;nan;-23892.44;5011818;28;20237;-68
2023/03/29 00:30:25;;;;;;;1.67;1.57;;;;;;;2.85;nan;-23895.59;5011327;28;20198;-69
2023/03/29 00:32:51;;;;;;;1.80;1.60;;;;;;;2.79;nan;-23894.00;5011434;28;20183;-69
2023/03/29 00:35:16;;;;;;;1.60;1.50;;;;;;;2.56;nan;-23887.44;5010958;28;20229;-69
2023/03/29 00:37:42;;;;;;;2.90;1.87;;;;;;;2.40;nan;-23882.88;5011265;28;20217;-70
2023/03/29 00:40:09;;;;;;;1.83;1.67;;;;;;;2.30;nan;-23880.16;5011523;28;20214;-68
2023/03/29 00:42:36;;;;;;;1.20;1.20;;;;;;;2.48;nan;-23885.16;5011199;28;20202;-68
2023/03/29 00:45:17;;;;;;;2.07;1.93;;;;;;;2.13;nan;-23875.31;5010977;28;20182;-69
2023/03/29 00:48:05;;;;;;;1.60;1.50;;;;;;;2.44;nan;-23884.16;5011263;28;20228;-69
2023/03/29 00:50:50;;;;;;;1.70;1.60;;;;;;;2.41;nan;-23883.16;5011130;28;20623;-68
2023/03/29 00:53:36;;;;;;;1.50;1.40;;;;;;;2.30;nan;-23880.03;5026422;28;20211;-69
2023/03/29 00:56:06;;;;;;;1.50;1.40;;;;;;;2.52;nan;-23886.44;5030130;28;20313;-68
2023/03/29 00:59:01;;;;;;;1.43;1.33;;;;;;;2.52;nan;-23886.31;5031507;28;20259;-69
2023/03/29 01:01:40;;;;;;;1.60;1.50;;;;;;;2.23;nan;-23878.31;5030479;28;20179;-69
2023/03/29 01:04:18;;;;;;;1.73;1.63;;;;;;;2.41;nan;-23883.31;5032684;28;20165;-68
2023/03/29 01:06:53;;;;;;;1.63;1.53;;;;;;;2.08;nan;-23873.88;5034517;28;20238;-69
2023/03/29 01:09:22;;;;;;;1.80;1.70;;;;;;;2.41;nan;-23883.16;5034956;28;20189;-69
2023/03/29 01:11:55;;;;;;;1.57;1.47;;;;;;;2.38;nan;-23882.44;5034554;28;20261;-69
2023/03/29 01:14:34;;;;;;;1.53;1.43;;;;;;;2.54;nan;-23887.03;5034241;28;20178;-69
2023/03/29 01:16:59;;;;;;;1.30;1.30;;;;;;;2.49;nan;-23885.59;5033967;28;20194;-69
2023/03/29 01:19:31;;;;;;;1.73;1.60;;;;;;;2.17;nan;-23876.59;5033787;28;20176;-68
2023/03/29 01:22:05;;;;;;;3.30;2.00;;;;;;;2.56;nan;-23887.59;5033077;28;20182;-68
2023/03/29 01:24:59;;;;;;;2.47;1.93;;;;;;;2.49;nan;-23885.59;5032769;28;20185;-69
2023/03/29 01:28:01;;;;;;;1.70;1.60;;;;;;;2.39;nan;-23882.59;5033750;28;20164;-68
2023/03/29 01:30:36;;;;;;;1.60;1.47;;;;;;;2.22;nan;-23878.03;5033761;28;20188;-70
2023/03/29 01:33:09;;;;;;;1.80;1.63;;;;;;;2.31;nan;-23880.47;5033948;28;20180;-69
2023/03/29 01:35:43;;;;;;;2.93;1.70;;;;;;;1.94;nan;-23870.03;5033629;28;20180;-68
2023/03/29 01:38:17;;;;;;;1.70;1.57;;;;;;;2.20;nan;-23877.47;5033987;28;20184;-70
2023/03/29 01:40:42;;;;;;;2.20;1.37;;;;;;;2.28;nan;-23879.44;5033756;28;20611;-68
2023/03/29 01:43:11;;;;;;;2.07;1.80;;;;;;;2.06;nan;-23873.31;5033630;28;20179;-69
2023/03/29 01:46:09;;;;;;;1.77;1.63;;;;;;;2.38;nan;-23882.44;5033639;28;20177;-68
2023/03/29 01:48:52;;;;;;;1.60;1.50;;;;;;;2.35;nan;-23881.47;5033622;28;20220;-68
2023/03/29 01:51:40;;;;;;;1.97;1.83;;;;;;;2.41;nan;-23883.16;5033630;28;20185;-69
2023/03/29 01:54:17;;;;;;;2.77;1.67;;;;;;;2.49;nan;-23885.59;5033426;28;20247;-69
2023/03/29 01:56:46;;;;;;;1.70;1.60;;;;;;;2.11;nan;-23874.75;5033475;28;20240;-68
2023/03/29 01:59:17;;;;;;;1.73;1.63;;;;;;;2.26;nan;-23879.03;5033285;28;20183;-68
2023/03/29 02:01:57;;;;;;;1.27;1.20;;;;;;;2.50;nan;-23885.72;5033305;28;20192;-68
2023/03/29 02:04:31;;;;;;;2.47;1.90;;;;;;;2.17;nan;-23876.47;5033530;28;20170;-69
2023/03/29 02:06:59;;;;;;;2.50;2.27;;;;;;;2.38;nan;-23882.31;5032774;28;20237;-68
2023/03/29 02:09:27;;;;;;;1.70;1.60;;;;;;;2.35;nan;-23881.59;5033320;28;20265;-69
2023/03/29 02:11:57;;;;;;;1.93;1.70;;;;;;;1.86;nan;-23867.75;5033075;28;20253;-68
2023/03/29 02:14:24;;;;;;;1.73;1.50;;;;;;;1.97;nan;-23870.75;5033313;28;20197;-69
2023/03/29 02:16:49;;;;;;;2.00;1.80;;;;;;;2.02;nan;-23872.31;5032986;28;20229;-69
2023/03/29 02:19:16;;;;;;;1.80;1.70;;;;;;;1.95;nan;-23870.31;5031427;28;20672;-69
2023/03/29 02:22:06;;;;;;;2.30;1.97;;;;;;;2.04;nan;-23872.88;5032810;28;20184;-69
2023/03/29 02:24:35;;;;;;;1.80;1.70;;;;;;;1.99;nan;-23871.47;5032819;28;20166;-70
2023/03/29 02:27:02;;;;;;;1.93;1.70;;;;;;;1.72;nan;-23863.75;5032966;28;20177;-69
2023/03/29 02:29:27;;;;;;;2.70;2.37;;;;;;;1.54;nan;-23858.75;5032750;28;20179;-68
2023/03/29 02:32:03;;;;;;;1.83;1.73;;;;;;;1.93;nan;-23869.59;5032462;28;20172;-70
2023/03/29 02:34:36;;;;;;;1.50;1.40;;;;;;;1.96;nan;-23870.59;5033121;28;20186;-69
2023/03/29 02:37:14;;;;;;;1.70;1.60;;;;;;;1.69;nan;-23863.03;5032774;28;20207;-70
2023/03/29 02:39:40;;;;;;;2.40;2.10;;;;;;;2.00;nan;-23871.75;5032929;28;20163;-70
2023/03/29 02:42:08;;;;;;;1.60;1.50;;;;;;;2.12;nan;-23875.03;5032967;28;20177;-69
2023/03/29 02:44:39;;;;;;;2.10;1.80;;;;;;;1.87;nan;-23868.03;5030730;28;20181;-69
2023/03/29 02:47:15;;;;;;;3.93;2.07;;;;;;;1.75;nan;-23864.75;5031194;28;20637;-70
2023/03/29 02:49:41;;;;;;;1.73;1.63;;;;;;;1.77;nan;-23865.16;5032629;28;20205;-70
2023/03/29 02:52:17;;;;;;;1.93;1.80;;;;;;;1.92;nan;-23869.47;5030993;28;20636;-69
2023/03/29 02:54:46;;;;;;;1.73;1.60;;;;;;;1.78;nan;-23865.47;5032137;28;20186;-69
2023/03/29 02:57:12;;;;;;;2.27;1.67;;;;;;;1.77;nan;-23865.16;5030710;28;20340;-70
2023/03/29 02:59:39;;;;;;;2.50;1.83;;;;;;;1.43;nan;-23855.47;5032225;28;20175;-70
2023/03/29 03:02:05;;;;;;;1.80;1.70;;;;;;;1.77;nan;-23865.31;5032181;28;20267;-70
2023/03/29 03:04:34;;;;;;;2.50;2.30;;;;;;;1.67;nan;-23862.47;5030845;28;20612;-68
2023/03/29 03:06:59;;;;;;;1.80;1.70;;;;;;;1.60;nan;-23860.47;5032138;28;20176;-70
2023/03/29 03:09:25;;;;;;;2.13;1.90;;;;;;;1.65;nan;-23861.88;5030549;28;20700;-69
2023/03/29 03:11:50;;;;;;;1.40;1.30;;;;;;;1.25;nan;-23850.44;5030377;28;20175;-69
2023/03/29 03:14:17;;;;;;;2.10;1.90;;;;;;;1.23;nan;-23850.03;5031074;28;20215;-69
2023/03/29 03:16:42;;;;;;;2.03;1.93;;;;;;;1.71;nan;-23863.59;5030775;28;20234;-69
2023/03/29 03:19:09;;;;;;;2.60;2.00;;;;;;;1.69;nan;-23862.88;5031275;28;20569;-69
2023/03/29 03:21:36;;;;;;;4.53;2.17;;;;;;;1.65;nan;-23861.88;5030680;28;20187;-69
2023/03/29 03:24:02;;;;;;;2.43;1.90;;;;;;;1.53;nan;-23858.44;5031217;28;20648;-69
2023/03/29 03:26:28;;;;;;;1.80;1.70;;;;;;;1.75;nan;-23864.59;5031102;28;20175;-68
2023/03/29 03:28:55;;;;;;;2.83;2.00;;;;;;;1.80;nan;-23865.88;5031079;28;20229;-69
2023/03/29 03:31:21;;;;;;;2.13;2.00;;;;;;;1.80;nan;-23865.88;5031286;28;20229;-70
2023/03/29 03:33:47;;;;;;;3.20;2.03;;;;;;;1.76;nan;-23865.03;5031283;28;20202;-69
2023/03/29 03:36:12;;;;;;;2.20;2.00;;;;;;;1.37;nan;-23853.88;5031215;28;20673;-70
2023/03/29 03:38:38;;;;;;;1.70;1.60;;;;;;;1.95;nan;-23870.16;5030900;28;20181;-69
2023/03/29 03:41:06;;;;;;;1.57;1.47;;;;;;;1.48;nan;-23857.03;5031433;28;20237;-70
2023/03/29 03:43:32;;;;;;;2.87;2.00;;;;;;;1.74;nan;-23864.31;5031136;28;20182;-69
2023/03/29 03:45:57;;;;;;;2.03;1.87;;;;;;;1.43;nan;-23855.59;5031351;28;20174;-69
2023/03/29 03:48:24;;;;;;;1.80;1.70;;;;;;;1.55;nan;-23858.88;5031215;28;20181;-69
2023/03/29 03:50:52;;;;;;;2.93;2.13;;;;;;;1.96;nan;-23870.59;5031125;28;20172;-69
2023/03/29 03:53:18;;;;;;;2.13;1.90;;;;;;;1.77;nan;-23865.31;5030767;28;20541;-69
2023/03/29 03:55:51;;;;;;;3.80;2.47;;;;;;;1.37;nan;-23853.75;5030566;28;20254;-69
2023/03/29 03:58:17;;;;;;;2.43;2.10;;;;;;;1.76;nan;-23865.03;5031594;28;20615;-69
2023/03/29 04:00:46;;;;;;;2.87;2.10;;;;;;;1.89;nan;-23868.59;5031060;28;20186;-69
2023/03/29 04:03:12;;;;;;;2.30;1.90;;;;;;;1.63;nan;-23861.16;5031468;28;20247;-68
2023/03/29 04:05:43;;;;;;;4.27;1.97;;;;;;;1.90;nan;-23868.75;5029298;28;20180;-68
2023/03/29 04:08:09;;;;;;;2.00;1.67;;;;;;;1.67;nan;-23862.47;5031166;28;20171;-69
2023/03/29 04:10:35;;;;;;;2.20;2.00;;;;;;;1.81;nan;-23866.16;5031288;28;20171;-69
2023/03/29 04:13:01;;;;;;;1.73;1.57;;;;;;;1.80;nan;-23865.88;5030020;28;20566;-69
2023/03/29 04:15:27;;;;;;;3.30;2.47;;;;;;;1.87;nan;-23867.88;5029946;28;20188;-69
2023/03/29 04:17:55;;;;;;;2.93;1.80;;;;;;;1.55;nan;-23859.03;5030961;28;20206;-70
2023/03/29 04:20:21;;;;;;;2.13;1.97;;;;;;;1.64;nan;-23861.47;5030386;28;20175;-69
2023/03/29 04:22:47;;;;;;;2.27;2.07;;;;;;;1.56;nan;-23859.31;5031062;28;20209;-70
2023/03/29 04:25:12;;;;;;;4.80;2.07;;;;;;;1.52;nan;-23858.03;5030957;28;20187;-69
2023/03/29 04:27:38;;;;;;;3.53;2.27;;;;;;;1.81;nan;-23866.31;5030661;28;20254;-70
2023/03/29 04:30:04;;;;;;;2.17;1.97;;;;;;;1.55;nan;-23859.03;5031076;28;20654;-69
2023/03/29 04:32:30;;;;;;;3.03;2.10;;;;;;;1.92;nan;-23869.31;5030740;28;20568;-69
2023/03/29 04:34:55;;;;;;;3.23;2.63;;;;;;;1.86;nan;-23867.59;5030961;28;20189;-70
2023/03/29 04:37:21;;;;;;;3.07;2.00;;;;;;;1.83;nan;-23866.88;5030887;28;20233;-71
2023/03/29 04:39:49;;;;;;;2.50;2.30;;;;;;;1.64;nan;-23861.59;5033837;28;20202;-70
2023/03/29 04:42:15;;;;;;;2.80;2.20;;;;;;;1.36;nan;-23853.44;5034829;28;20257;-71
2023/03/29 04:44:42;;;;;;;2.30;2.10;;;;;;;1.70;nan;-23863.16;5034466;28;20184;-69
2023/03/29 04:47:10;;;;;;;3.73;2.57;;;;;;;2.02;nan;-23872.16;5034585;28;20188;-70
2023/03/29 04:49:36;;;;;;;1.80;1.70;;;;;;;2.03;nan;-23872.47;5034243;28;20177;-71
2023/03/29 04:52:02;;;;;;;1.87;1.70;;;;;;;1.81;nan;-23866.16;5033102;28;20191;-70
2023/03/29 04:54:27;;;;;;;1.67;1.57;;;;;;;2.31;nan;-23880.47;5034454;28;20180;-69
2023/03/29 04:56:52;;;;;;;2.20;2.00;;;;;;;2.35;nan;-23881.47;5034718;28;20237;-70
2023/03/29 04:59:18;;;;;;;2.17;1.97;;;;;;;2.14;nan;-23875.59;5034469;28;20186;-69
2023/03/29 05:01:44;;;;;;;2.37;1.93;;;;;;;2.46;nan;-23884.75;5034165;28;20170;-69
2023/03/29 05:04:10;;;;;;;4.47;2.10;;;;;;;2.68;nan;-23891.00;5034253;28;20183;-68
2023/03/29 05:06:36;;;;;;;2.23;2.13;;;;;;;2.77;nan;-23893.44;5034502;28;20174;-68
2023/03/29 05:09:03;;;;;;;2.03;1.87;;;;;;;2.10;nan;-23874.47;5034373;28;20186;-70
2023/03/29 05:11:29;;;;;;;5.47;2.40;;;;;;;2.33;nan;-23881.03;5034437;28;20519;-68
2023/03/29 05:13:57;;;;;;;3.33;2.23;;;;;;;2.90;nan;-23897.00;5033772;28;20198;-70
2023/03/29 05:16:25;;;;;;;3.37;2.30;;;;;;;2.74;nan;-23892.59;5031900;28;20237;-70
2023/03/29 05:18:50;;;;;;;2.23;1.87;;;;;;;2.93;nan;-23897.88;5032286;28;20178;-70
2023/03/29 05:21:16;;;;;;;2.83;2.30;;;;;;;3.08;nan;-23902.16;5033548;28;20186;-71
2023/03/29 05:23:42;;;;;;;3.87;2.60;;;;;;;3.13;nan;-23903.44;5033769;28;20181;-71
2023/03/29 05:26:08;;;;;;;2.63;2.23;;;;;;;2.89;nan;-23896.88;5034141;28;20179;-70
2023/03/29 05:28:34;;;;;;;2.57;2.37;;;;;;;3.24;nan;-23906.72;5032459;28;20733;-70
2023/03/29 05:31:04;;;;;;;2.20;2.07;;;;;;;3.45;nan;-23912.56;5033250;28;20251;-70
2023/03/29 05:33:29;;;;;;;2.17;1.90;;;;;;;3.17;nan;-23904.72;5033031;28;20182;-69
2023/03/29 05:36:02;;;;;;;2.30;2.10;;;;;;;3.54;nan;-23915.25;5033394;28;20691;-69
2023/03/29 05:38:29;;;;;;;3.43;2.13;;;;;;;3.55;nan;-23915.53;5033581;28;20178;-70
2023/03/29 05:40:56;;;;;;;2.40;2.20;;;;;;;3.04;nan;-23901.16;5032155;28;20175;-70
2023/03/29 05:43:22;;;;;;;2.83;2.23;;;;;;;3.60;nan;-23916.69;5033204;28;20182;-69
2023/03/29 05:45:47;;;;;;;11.53;2.80;;;;;;;3.71;nan;-23919.81;5032653;28;20191;-70
2023/03/29 05:48:13;;;;;;;16.43;2.13;;;;;;;3.89;nan;-23924.94;5032267;28;20194;-71
2023/03/29 05:50:38;;;;;;;2.80;2.10;;;;;;;3.87;nan;-23924.53;5032874;28;20152;-70
2023/03/29 05:53:04;;;;;;;2.80;2.20;;;;;;;3.63;nan;-23917.53;5032874;28;20175;-69
2023/03/29 05:55:29;;;;;;;2.60;2.10;;;;;;;3.93;nan;-23926.22;5033323;28;20272;-69
2023/03/29 05:57:55;;;;;;;1.60;1.50;;;;;;;4.26;nan;-23935.50;5033127;28;20685;-70
2023/03/29 06:00:24;;;;;;;2.57;2.37;;;;;;;4.29;nan;-23936.19;5032814;28;20285;-70
2023/03/29 06:02:55;;;;;;;2.43;2.20;;;;;;;3.96;nan;-23926.94;5033816;28;20163;-70
2023/03/29 06:05:21;;;;;;;1.97;1.80;;;;;;;4.08;nan;-23930.22;5031421;28;20192;-70
2023/03/29 06:07:47;;;;;;;3.33;2.40;;;;;;;4.20;nan;-23933.78;5032813;28;20243;-69
2023/03/29 06:10:14;;;;;;;1.67;1.57;;;;;;;4.64;nan;-23946.16;5032830;28;20229;-70
2023/03/29 06:12:40;;;;;;;1.93;1.80;;;;;;;4.43;nan;-23940.34;5032165;28;20195;-70
2023/03/29 06:15:09;;;;;;;1.50;1.40;;;;;;;4.83;nan;-23951.56;5033120;28;20177;-71
2023/03/29 06:17:35;;;;;;;2.80;2.30;;;;;;;4.81;nan;-23950.84;5031033;28;20219;-69
2023/03/29 06:20:01;;;;;;;2.30;1.93;;;;;;;4.69;nan;-23947.59;5032727;28;20205;-69
2023/03/29 06:22:27;;;;;;;2.00;1.80;;;;;;;4.96;nan;-23955.00;5031922;28;20182;-71
2023/03/29 06:24:53;;;;;;;2.57;2.33;;;;;;;4.98;nan;-23955.56;5030136;28;20572;-70
2023/03/29 06:27:18;;;;;;;2.30;1.73;;;;;;;4.86;nan;-23952.28;5032271;28;20175;-70
2023/03/29 06:29:44;;;;;;;1.97;1.70;;;;;;;4.88;nan;-23953.00;5031477;28;20240;-71
2023/03/29 06:32:10;;;;;;;2.43;2.00;;;;;;;4.72;nan;-23948.31;5032404;28;20211;-70
2023/03/29 06:34:36;;;;;;;1.80;1.70;;;;;;;4.58;nan;-23944.31;5030017;28;20195;-71
2023/03/29 06:37:02;;;;;;;2.40;1.90;;;;;;;4.97;nan;-23955.41;5030835;28;20203;-71
2023/03/29 06:39:28;;;;;;;2.83;2.03;;;;;;;4.63;nan;-23945.75;5032822;28;20225;-71
2023/03/29 06:41:54;;;;;;;1.50;1.40;;;;;;;5.09;nan;-23958.69;5029947;28;20237;-71
2023/03/29 06:44:20;;;;;;;2.37;1.50;;;;;;;5.19;nan;-23961.66;5031330;28;20192;-70
2023/03/29 06:46:45;;;;;;;3.93;1.80;;;;;;;5.10;nan;-23958.97;5031919;28;20191;-70
2023/03/29 06:49:11;;;;;;;2.17;1.97;;;;;;;5.52;nan;-23970.78;5031702;28;20317;-71
2023/03/29 06:51:38;;;;;;;1.80;1.70;;;;;;;5.57;nan;-23972.34;5029669;28;20245;-69
2023/03/29 06:54:04;;;;;;;2.10;1.90;;;;;;;5.43;nan;-23968.22;5031269;28;20187;-71
2023/03/29 06:56:30;;;;;;;1.50;1.40;;;;;;;5.43;nan;-23968.22;5063701;28;20238;-70
2023/03/29 06:58:57;;;;;;;3.07;1.80;;;;;;;5.39;nan;-23967.06;5032420;28;20186;-71
2023/03/29 07:01:22;;;;;;;3.10;2.27;;;;;;;5.33;nan;-23965.50;5032591;28;20187;-70
2023/03/29 07:03:48;;;;;;;4.67;1.87;;;;;;;5.32;nan;-23965.22;4980522;28;20183;-71
2023/03/29 07:06:16;;;;;;;1.63;1.53;;;;;;;5.21;nan;-23962.09;5032046;28;20245;-71
2023/03/29 07:08:42;;;;;;;1.87;1.70;;;;;;;5.68;nan;-23975.31;5032361;28;20172;-71
2023/03/29 07:11:12;;;;;;;1.90;1.70;;;;;;;5.79;nan;-23978.59;5031858;28;20183;-71
2023/03/29 07:13:41;;;;;;;2.33;1.70;;;;;;;5.91;nan;-23981.72;5032514;28;20179;-70
2023/03/29 07:16:11;;;;;;;1.63;1.53;;;;;;;5.73;nan;-23976.88;5032094;28;20199;-70
2023/03/29 07:18:41;;;;;;;1.37;1.27;;;;;;;5.37;nan;-23966.50;5031630;28;20226;-69
2023/03/29 07:21:08;;;;;;;1.70;1.53;;;;;;;5.72;nan;-23976.59;5031870;28;20218;-70
2023/03/29 07:23:33;;;;;;;1.80;1.70;;;;;;;5.76;nan;-23977.75;5031659;28;20635;-71
2023/03/29 07:26:00;;;;;;;1.73;1.60;;;;;;;5.87;nan;-23980.72;5031893;28;20187;-70
2023/03/29 07:28:25;;;;;;;2.23;2.03;;;;;;;5.97;nan;-23983.41;5031910;28;20698;-71
2023/03/29 07:30:52;;;;;;;1.70;1.60;;;;;;;6.38;nan;-23994.94;5031671;28;20267;-70
2023/03/29 07:33:17;;;;;;;2.23;2.03;;;;;;;6.38;nan;-23994.94;5030600;28;20179;-70
2023/03/29 07:35:43;;;;;;;5.17;2.57;;;;;;;6.17;nan;-23989.09;5032002;28;20673;-72
2023/03/29 07:38:09;;;;;;;1.77;1.67;;;;;;;6.48;nan;-23997.75;5031188;28;20677;-70
2023/03/29 07:40:34;;;;;;;1.90;1.80;;;;;;;6.27;nan;-23991.94;5031729;28;20179;-71
2023/03/29 07:43:01;;;;;;;1.73;1.63;;;;;;;6.68;nan;-24003.44;5031395;28;20167;-71
2023/03/29 07:45:27;;;;;;;1.50;1.40;;;;;;;6.51;nan;-23998.63;5031528;28;20176;-71
2023/03/29 07:47:57;;;;;;;1.83;1.40;;;;;;;6.57;nan;-24000.31;5031667;28;20199;-70
2023/03/29 07:50:23;;;;;;;2.30;2.00;;;;;;;6.61;nan;-24001.47;5031237;28;20179;-70
2023/03/29 07:52:48;;;;;;;1.50;1.40;;;;;;;6.68;nan;-24003.31;5031156;28;20237;-70
2023/03/29 07:55:14;;;;;;;1.70;1.60;;;;;;;6.83;nan;-24007.69;5029812;28;20281;-70
2023/03/29 07:57:40;;;;;;;1.33;1.23;;;;;;;7.15;nan;-24016.63;5031421;28;20621;-69
2023/03/29 08:00:17;;;;;;;2.30;2.10;;;;;;;6.75;nan;-24005.28;5031233;28;20183;-70
2023/03/29 08:02:44;;;;;;;1.80;1.60;;;;;;;6.62;nan;-24001.88;5031786;28;20167;-71
2023/03/29 08:05:12;;;;;;;15.43;2.00;;;;;;;6.45;nan;-23997.06;5030050;28;20178;-70
2023/03/29 08:07:39;;;;;;;1.53;1.43;;;;;;;6.55;nan;-23999.75;5031235;28;20263;-70
2023/03/29 08:10:12;;;;;;;1.60;1.50;;;;;;;6.73;nan;-24004.72;5031534;28;20178;-71
2023/03/29 08:12:38;;;;;;;1.60;1.50;;;;;;;7.24;nan;-24019.03;5032900;28;20182;-71
2023/03/29 08:15:04;;;;;;;1.43;1.33;;;;;;;7.33;nan;-24021.59;5035640;28;20212;-72
2023/03/29 08:17:31;;;;;;;1.90;1.67;;;;;;;6.96;nan;-24011.38;5035566;28;20198;-72
2023/03/29 08:19:56;;;;;;;1.50;1.33;;;;;;;6.69;nan;-24003.59;5033756;28;20183;-72
2023/03/29 08:22:22;;;;;;;1.60;1.50;;;;;;;7.22;nan;-24018.63;5033719;28;20565;-71
2023/03/29 08:24:47;;;;;;;2.43;1.73;;;;;;;7.39;nan;-24023.31;5034525;28;20605;-70
2023/03/29 08:27:13;;;;;;;1.90;1.60;;;;;;;7.26;nan;-24019.63;5034664;28;20180;-70
2023/03/29 08:29:38;;;;;;;1.57;1.47;;;;;;;7.41;nan;-24023.88;5034751;28;20654;-69
2023/03/29 08:32:04;;;;;;;1.90;1.50;;;;;;;7.17;nan;-24017.06;5035099;28;20180;-71
2023/03/29 08:34:30;;;;;;;2.00;1.70;;;;;;;7.46;nan;-24025.28;5034369;28;20642;-70
2023/03/29 08:36:57;;;;;;;1.63;1.50;;;;;;;6.80;nan;-24006.72;5034569;28;20258;-72
2023/03/29 08:39:22;;;;;;;1.43;1.33;;;;;;;6.86;nan;-24008.56;5035134;28;20694;-72
2023/03/29 08:41:54;;;;;;;1.77;1.57;;;;;;;7.14;nan;-24016.34;5034731;28;20168;-71
2023/03/29 08:44:38;;;;;;;1.93;1.63;;;;;;;7.74;nan;-24033.06;5034662;28;20164;-71
2023/03/29 08:47:06;;;;;;;1.90;1.70;;;;;;;7.70;nan;-24032.09;5033160;28;20187;-70
2023/03/29 08:49:36;;;;;;;1.57;1.47;;;;;;;7.45;nan;-24025.00;5033299;28;20176;-71
2023/03/29 08:52:10;;;;;;;1.83;1.63;;;;;;;7.51;nan;-24026.69;5034307;28;20583;-71
2023/03/29 08:54:42;;;;;;;1.47;1.37;;;;;;;7.70;nan;-24032.09;5034185;28;20168;-73
2023/03/29 08:57:17;;;;;;;2.20;1.70;;;;;;;7.55;nan;-24027.97;5032512;28;20606;-71
2023/03/29 08:59:44;;;;;;;1.87;1.67;;;;;;;7.81;nan;-24035.22;5034208;28;20174;-72
2023/03/29 09:02:23;;;;;;;1.60;1.50;;;;;;;7.84;nan;-24036.06;5032800;28;20182;-71
2023/03/29 09:04:51;;;;;;;2.27;1.60;;;;;;;8.06;nan;-24042.00;5034173;28;20167;-71
2023/03/29 09:07:17;;;;;;;1.90;1.70;;;;;;;7.70;nan;-24031.94;5032685;28;20175;-72
2023/03/29 09:09:42;;;;;;;7.43;1.70;;;;;;;7.91;nan;-24037.88;5032928;28;20241;-73
2023/03/29 09:12:08;;;;;;;1.70;1.60;;;;;;;8.05;nan;-24041.72;5032971;28;20182;-71
2023/03/29 09:14:56;;;;;;;1.30;1.20;;;;;;;7.97;nan;-24039.59;5034042;28;20608;-72
2023/03/29 09:17:35;;;;;;;1.67;1.57;;;;;;;8.10;nan;-24043.28;5039530;28;20199;-70
2023/03/29 09:20:26;;;;;;;1.77;1.67;;;;;;;7.87;nan;-24036.91;5032843;28;20542;-70
2023/03/29 09:23:00;;;;;;;2.27;2.03;;;;;;;7.10;nan;-24015.34;5034024;28;20168;-71
2023/03/29 09:25:47;;;;;;;1.77;1.67;;;;;;;7.67;nan;-24031.25;5030844;28;20542;-71
2023/03/29 09:28:34;;;;;;;1.60;1.50;;;;;;;7.94;nan;-24038.88;5033653;28;20187;-71
2023/03/29 09:31:26;;;;;;;2.10;1.60;;;;;;;7.92;nan;-24038.31;5013574;28;20183;-71
2023/03/29 09:33:56;;;;;;;8.17;1.90;;;;;;;7.67;nan;-24031.25;5020108;28;20199;-71
2023/03/29 09:36:23;;;;;;;1.73;1.43;;;;;;;7.41;nan;-24023.88;5032378;28;20253;-71
2023/03/29 09:38:53;;;;;;;1.70;1.60;;;;;;;7.97;nan;-24039.72;5033908;28;20642;-71
2023/03/29 09:41:26;;;;;;;2.13;1.70;;;;;;;7.95;nan;-24039.16;5032490;28;20206;-69
2023/03/29 09:43:56;;;;;;;1.77;1.53;;;;;;;7.57;nan;-24028.25;5032593;28;20211;-70
2023/03/29 09:46:27;;;;;;;1.63;1.40;;;;;;;8.34;nan;-24050.06;5033373;28;20658;-71
2023/03/29 09:48:55;;;;;;;2.83;1.80;;;;;;;8.26;nan;-24047.81;5033559;28;20241;-70
2023/03/29 09:51:25;;;;;;;3.07;1.83;;;;;;;8.23;nan;-24046.81;5032072;28;20536;-70
2023/03/29 09:53:51;;;;;;;2.87;1.40;;;;;;;8.35;nan;-24050.22;5033561;28;20175;-70
2023/03/29 09:56:17;;;;;;;1.90;1.80;;;;;;;8.36;nan;-24050.66;5033191;28;20242;-71
2023/03/29 09:58:45;;;;;;;2.20;1.47;;;;;;;8.34;nan;-24049.94;5031695;28;20187;-70
2023/03/29 10:01:16;;;;;;;1.80;1.70;;;;;;;8.30;nan;-24048.94;5033184;28;20186;-71
2023/03/29 10:03:50;;;;;;;1.50;1.40;;;;;;;8.95;nan;-24067.06;5033301;28;20167;-71
2023/03/29 10:06:17;;;;;;;2.23;1.60;;;;;;;9.35;nan;-24078.22;5033079;28;20270;-72
2023/03/29 10:08:53;;;;;;;1.80;1.70;;;;;;;9.18;nan;-24073.41;5031691;28;20187;-70
2023/03/29 10:11:19;;;;;;;1.70;1.60;;;;;;;9.49;nan;-24082.03;5032115;28;20638;-70
2023/03/29 10:13:53;;;;;;;4.60;2.23;;;;;;;9.05;nan;-24069.88;5033532;28;20278;-69
2023/03/29 10:16:19;;;;;;;2.60;1.70;;;;;;;9.16;nan;-24072.84;5032992;28;20285;-70
2023/03/29 10:18:46;;;;;;;1.83;1.63;;;;;;;9.08;nan;-24070.59;5032991;28;20598;-70
2023/03/29 10:21:16;;;;;;;1.80;1.70;;;;;;;8.95;nan;-24066.91;5032362;28;20171;-70
2023/03/29 10:23:42;;;;;;;3.17;1.40;;;;;;;9.01;nan;-24068.75;5032838;28;20191;-69
2023/03/29 10:26:26;;;;;;;1.60;1.50;;;;;;;9.49;nan;-24082.03;5032273;28;20175;-70
2023/03/29 10:28:53;;;;;;;5.30;1.70;;;;;;;9.50;nan;-24082.47;5032233;28;20175;-70
2023/03/29 10:31:21;;;;;;;1.47;1.37;;;;;;;9.44;nan;-24080.63;5032510;28;20203;-69
2023/03/29 10:33:55;;;;;;;1.60;1.50;;;;;;;9.47;nan;-24081.47;5032023;28;20179;-69
2023/03/29 10:36:22;;;;;;;1.93;1.73;;;;;;;9.34;nan;-24077.81;5031756;28;20199;-70
2023/03/29 10:38:50;;;;;;;1.83;1.63;;;;;;;9.04;nan;-24069.47;5032109;28;20611;-70
2023/03/29 10:41:16;;;;;;;1.90;1.67;;;;;;;9.55;nan;-24083.88;5032172;28;20232;-70
2023/03/29 10:43:49;;;;;;;2.60;1.80;;;;;;;9.65;nan;-24086.72;5032312;28;20262;-70
2023/03/29 10:46:30;;;;;;;2.23;1.87;;;;;;;9.88;nan;-24092.91;5031670;28;20171;-70
2023/03/29 10:48:59;;;;;;;1.87;1.77;;;;;;;9.94;nan;-24094.63;5032223;28;20174;-70
2023/03/29 10:51:29;;;;;;;1.73;1.63;;;;;;;9.98;nan;-24095.75;5031555;28;20171;-71
2023/03/29 10:53:57;;;;;;;1.70;1.60;;;;;;;9.65;nan;-24086.72;5031906;28;20629;-71
2023/03/29 10:56:52;;;;;;;2.07;1.70;;;;;;;9.69;nan;-24087.84;5030882;28;20230;-70
2023/03/29 10:59:23;;;;;;;1.60;1.50;;;;;;;9.76;nan;-24089.66;5030672;28;20282;-71
2023/03/29 11:02:13;;;;;;;1.50;1.40;;;;;;;9.99;nan;-24096.16;5031893;28;20167;-69
2023/03/29 11:04:45;;;;;;;2.73;1.70;;;;;;;9.94;nan;-24094.63;5031843;28;20263;-70
2023/03/29 11:07:31;;;;;;;1.63;1.53;;;;;;;10.17;nan;-24101.13;5030742;28;20189;-70
2023/03/29 11:10:03;;;;;;;1.50;1.40;;;;;;;10.03;nan;-24097.31;5031635;28;20585;-71
2023/03/29 11:12:37;;;;;;;2.13;1.50;;;;;;;10.39;nan;-24107.19;5031561;28;20179;-69
2023/03/29 11:15:23;;;;;;;2.97;2.03;;;;;;;10.62;nan;-24113.81;5031730;28;20175;-71
2023/03/29 11:18:11;;;;;;;1.40;1.30;;;;;;;10.48;nan;-24109.88;5031932;28;20198;-70
2023/03/29 11:20:43;;;;;;;4.87;1.70;;;;;;;10.38;nan;-24107.03;5011501;28;20708;-71
2023/03/29 11:23:27;;;;;;;2.10;1.70;;;;;;;10.45;nan;-24109.03;5031646;28;20205;-71
2023/03/29 11:25:59;;;;;;;3.17;1.80;;;;;;;10.53;nan;-24111.13;5031554;28;20190;-70
2023/03/29 11:28:37;;;;;;;1.70;1.60;;;;;;;10.69;nan;-24115.50;5031588;28;20163;-71
2023/03/29 11:31:36;;;;;;;1.80;1.70;;;;;;;10.59;nan;-24112.97;5031639;28;20167;-70
2023/03/29 11:34:28;;;;;;;3.20;1.90;;;;;;;10.16;nan;-24100.97;4977891;28;20607;-70
2023/03/29 11:37:07;;;;;;;2.00;1.70;;;;;;;10.02;nan;-24096.88;5031143;28;20269;-71
2023/03/29 11:40:04;;;;;;;2.57;1.60;;;;;;;10.55;nan;-24111.69;5030639;28;20186;-71
2023/03/29 11:42:33;;;;;;;1.50;1.40;;;;;;;10.25;nan;-24103.38;5030499;28;20247;-71
2023/03/29 11:45:03;;;;;;;1.40;1.30;;;;;;;10.36;nan;-24106.34;5030848;28;20178;-70
2023/03/29 11:47:36;;;;;;;1.70;1.60;;;;;;;10.44;nan;-24108.59;5029162;28;20175;-71
2023/03/29 11:50:29;;;;;;;2.20;1.50;;;;;;;10.40;nan;-24107.63;5031300;28;20159;-70
2023/03/29 11:53:01;;;;;;;8.77;1.40;;;;;;;10.41;nan;-24107.88;5026226;28;20206;-70
2023/03/29 11:55:32;;;;;;;1.40;1.15;;;;;;;10.94;nan;-24122.69;5030805;28;20231;-71
2023/03/29 11:58:05;;;;;;;2.30;1.70;;;;;;;10.78;nan;-24118.19;5031289;28;20599;-71
2023/03/29 12:00:39;;;;;;;1.88;1.65;;;;;;;11.03;nan;-24125.09;5030977;28;20645;-70
2023/03/29 12:03:38;;;;;;;1.67;1.55;;;;;;;11.11;nan;-24127.22;5030626;28;20178;-70